CheckWX is a tool to help pilots better visualize weather data.  It is not intended as a substitute for an official pre-flight weather briefing.

13:07:10 UTC

KMUO METAR
Mountain Home AFB Airport
Mountain Home, Idaho, USA
Current

24 mins ago

KMUO 051243Z AUTO 11003KT 10SM FEW065 BKN080 BKN100 05/05 A2966 RMK AO2 SLP041 $
Observed
Apr-5 @ 12:43 UTC
Wind
  • 110° at 3 KTS
Visibility
Flight Rules
VFR
Cloud Levels
  • Few at 6,500' AGL
  • Broken at 8,000' AGL
  • Broken at 10,000' AGL
Temperature
C / 41°F
Dewpoint
C / 41°F
Humidity
100%
Altimeter
29.66" Hg
Pressure
1004.42 hPa
Previous

1 hour ago

KMUO 051158Z AUTO 10003KT 10SM OVC075 04/04 A2966 RMK AO2 SLP041 T00420042 10061 20038 55000 $
Observed
Apr-5 @ 11:58 UTC
Wind
  • 100° at 3 KTS
Visibility
Flight Rules
VFR
Cloud Levels
  • Overcast at 7,500' AGL
Temperature
C / 39°F
Dewpoint
C / 39°F
Humidity
100%
Altimeter
29.66" Hg
Pressure
1004.42 hPa
Previous

2 hours ago

KMUO 051058Z AUTO 00000KT 10SM SCT085 BKN110 05/05 A2965 RMK AO2 SLP037 T00530053 $
Observed
Apr-5 @ 10:58 UTC
Visibility
Flight Rules
VFR
Cloud Levels
  • Scattered at 8,500' AGL
  • Broken at 11,000' AGL
Temperature
C / 41°F
Dewpoint
C / 41°F
Humidity
100%
Altimeter
29.65" Hg
Pressure
1004.02 hPa